Time,TemperatureF,DewpointF,PressureIn,WindDirection,WindDirectionDegrees,WindSpeedMPH,WindSpeedGustMPH,Humidity,HourlyPrecipIn,Conditions,Clouds,dailyrainin,SoftwareType,DateUTC
2013-01-03 00:00:00,34.3,32.5,30.17,SSE,158,0.0,1.0,93,0.00,,---,0.00,VWS V14.01,2013-01-03 08:00:00,
2013-01-03 00:10:00,33.9,32.1,30.17,SSE,158,0.0,0.0,93,0.00,,---,0.00,VWS V14.01,2013-01-03 08:10:00,
2013-01-03 00:20:00,33.9,32.1,30.17,SSE,158,0.0,0.0,93,0.00,,---,0.00,VWS V14.01,2013-01-03 08:20:00,
2013-01-03 00:30:00,33.9,32.1,30.17,SSE,158,0.0,1.0,93,0.00,,---,0.00,VWS V14.01,2013-01-03 08:30:00,
2013-01-03 00:40:00,33.8,32.0,30.17,SSE,158,0.0,0.0,93,0.00,,---,0.00,VWS V14.01,2013-01-03 08:40:00,
2013-01-03 00:50:00,33.4,31.6,30.17,SSE,158,0.0,0.0,93,0.00,,---,0.00,VWS V14.01,2013-01-03 08:50:00,
2013-01-03 01:00:00,33.3,31.5,30.17,SSE,158,0.0,0.0,93,0.00,,---,0.00,VWS V14.01,2013-01-03 09:00:00,
2013-01-03 01:10:00,33.2,31.4,30.16,SSE,158,0.0,1.0,93,0.00,,---,0.00,VWS V14.01,2013-01-03 09:10:00,
2013-01-03 01:20:00,33.0,31.2,30.16,SSE,158,0.0,1.0,93,0.00,,---,0.00,VWS V14.01,2013-01-03 09:20:00,
2013-01-03 01:30:00,32.8,31.0,30.17,SSE,158,0.0,0.0,93,0.00,,---,0.00,VWS V14.01,2013-01-03 09:30:00,
2013-01-03 01:40:00,32.5,30.7,30.17,SSE,158,0.0,0.0,93,0.00,,---,0.00,VWS V14.01,2013-01-03 09:40:00,
2013-01-03 01:50:00,32.3,30.8,30.17,SSE,158,0.0,0.0,94,0.00,,---,0.00,VWS V14.01,2013-01-03 09:50:00,
2013-01-03 02:00:00,32.4,30.9,30.17,SSE,158,0.0,1.0,94,0.00,,---,0.00,VWS V14.01,2013-01-03 10:00:00,
2013-01-03 02:10:00,32.1,30.3,30.17,SSE,158,0.0,0.0,93,0.00,,---,0.00,VWS V14.01,2013-01-03 10:10:00,
2013-01-03 02:20:00,31.9,30.4,30.17,SSE,158,0.0,0.0,94,0.00,,---,0.00,VWS V14.01,2013-01-03 10:20:00,
2013-01-03 02:30:00,31.6,29.8,30.17,SSE,158,0.0,0.0,93,0.00,,---,0.00,VWS V14.01,2013-01-03 10:30:00,
2013-01-03 02:40:00,31.3,29.8,30.17,SSE,158,0.0,0.0,94,0.00,,---,0.00,VWS V14.01,2013-01-03 10:40:00,
2013-01-03 02:50:00,31.2,29.7,30.17,SSE,158,0.0,0.0,94,0.00,,---,0.00,VWS V14.01,2013-01-03 10:50:00,
2013-01-03 03:00:00,31.2,29.7,30.17,SSE,158,0.0,1.0,94,0.00,,---,0.00,VWS V14.01,2013-01-03 11:00:00,
2013-01-03 03:10:00,31.3,29.8,30.16,SSE,158,0.0,1.0,94,0.00,,---,0.00,VWS V14.01,2013-01-03 11:10:00,
2013-01-03 03:20:00,31.3,29.8,30.15,SSE,158,0.0,0.0,94,0.00,,---,0.00,VWS V14.01,2013-01-03 11:20:00,
2013-01-03 03:30:00,31.0,29.5,30.16,SSE,158,0.0,0.0,94,0.00,,---,0.00,VWS V14.01,2013-01-03 11:30:00,
2013-01-03 03:40:00,30.7,29.2,30.15,SSE,158,0.0,0.0,94,0.00,,---,0.00,VWS V14.01,2013-01-03 11:40:00,
2013-01-03 03:50:00,30.6,29.1,30.15,SSE,158,0.0,1.0,94,0.00,,---,0.00,VWS V14.01,2013-01-03 11:50:00,
2013-01-03 04:00:00,30.8,29.5,30.15,SSE,158,0.0,1.0,95,0.00,,---,0.00,VWS V14.01,2013-01-03 12:00:00,
2013-01-03 04:10:00,30.8,29.3,30.15,SSE,158,0.0,1.0,94,0.00,,---,0.00,VWS V14.01,2013-01-03 12:10:00,
2013-01-03 04:20:00,30.6,29.1,30.15,SSE,158,0.0,0.0,94,0.00,,---,0.00,VWS V14.01,2013-01-03 12:20:00,
2013-01-03 04:30:00,30.4,28.9,30.15,SSE,158,0.0,0.0,94,0.00,,---,0.00,VWS V14.01,2013-01-03 12:30:00,
2013-01-03 04:40:00,30.4,28.9,30.15,SSE,158,0.0,1.0,94,0.00,,---,0.00,VWS V14.01,2013-01-03 12:40:00,
2013-01-03 04:50:00,30.5,29.0,30.15,SSE,158,0.0,1.0,94,0.00,,---,0.00,VWS V14.01,2013-01-03 12:50:00,
2013-01-03 05:00:00,30.5,29.0,30.15,SSE,158,0.0,1.0,94,0.00,,---,0.00,VWS V14.01,2013-01-03 13:00:00,
2013-01-03 05:10:00,30.3,28.8,30.15,SSE,158,0.0,0.0,94,0.00,,---,0.00,VWS V14.01,2013-01-03 13:10:00,
2013-01-03 05:20:00,30.1,28.6,30.16,SSE,158,0.0,0.0,94,0.00,,---,0.00,VWS V14.01,2013-01-03 13:20:00,
2013-01-03 05:30:00,30.0,28.5,30.16,SSE,158,0.0,0.0,94,0.00,,---,0.00,VWS V14.01,2013-01-03 13:30:00,
2013-01-03 05:40:00,30.2,28.9,30.16,SSE,158,0.0,1.0,95,0.00,,---,0.00,VWS V14.01,2013-01-03 13:40:00,
2013-01-03 05:50:00,30.5,29.2,30.16,SSE,158,0.0,1.0,95,0.00,,---,0.00,VWS V14.01,2013-01-03 13:50:00,
2013-01-03 06:00:00,30.4,28.9,30.17,SSE,158,0.0,1.0,94,0.00,,---,0.00,VWS V14.01,2013-01-03 14:00:00,
2013-01-03 06:10:00,30.1,28.8,30.17,SSE,158,0.0,0.0,95,0.00,,---,0.00,VWS V14.01,2013-01-03 14:10:00,
2013-01-03 06:20:00,30.2,28.9,30.17,SSE,158,0.0,0.0,95,0.00,,---,0.00,VWS V14.01,2013-01-03 14:20:00,
2013-01-03 06:30:00,30.1,28.8,30.17,SSE,158,0.0,0.0,95,0.00,,---,0.00,VWS V14.01,2013-01-03 14:30:00,
2013-01-03 06:40:00,29.9,28.4,30.17,SSE,158,0.0,0.0,94,0.00,,---,0.00,VWS V14.01,2013-01-03 14:40:00,
2013-01-03 06:50:00,29.8,28.3,30.17,SSE,158,0.0,0.0,94,0.00,,---,0.00,VWS V14.01,2013-01-03 14:50:00,
2013-01-03 07:00:00,29.6,28.1,30.17,SSE,158,0.0,0.0,94,0.00,,---,0.00,VWS V14.01,2013-01-03 15:00:00,
2013-01-03 07:10:00,29.6,28.1,30.17,SSE,158,0.0,0.0,94,0.00,,---,0.00,VWS V14.01,2013-01-03 15:10:00,
2013-01-03 07:20:00,29.6,28.1,30.18,SSE,158,0.0,0.0,94,0.00,,---,0.00,VWS V14.01,2013-01-03 15:20:00,
2013-01-03 07:30:00,29.6,28.1,30.18,SSE,158,0.0,0.0,94,0.00,,---,0.00,VWS V14.01,2013-01-03 15:30:00,
2013-01-03 07:40:00,29.7,28.5,30.18,SSE,158,0.0,0.0,95,0.00,,---,0.00,VWS V14.01,2013-01-03 15:40:00,
2013-01-03 07:50:00,29.7,28.5,30.18,SSE,158,0.0,0.0,95,0.00,,---,0.00,VWS V14.01,2013-01-03 15:50:00,
2013-01-03 08:00:00,29.8,28.5,30.19,SSE,158,0.0,0.0,95,0.00,,---,0.00,VWS V14.01,2013-01-03 16:00:00,
2013-01-03 08:10:00,35.9,33.8,30.21,SSE,157,0.0,1.0,92,0.01,,CLR,0.01,VWS V14.01,2013-01-03 16:10:00,
2013-01-03 08:19:00,30.8,29.5,30.20,SSE,157,0.0,0.0,95,0.00,,---,0.00,VWS V14.01,2013-01-03 16:19:00,
2013-01-03 08:20:00,31.0,29.7,30.20,SSE,157,0.0,0.0,95,0.00,,---,0.00,VWS V14.01,2013-01-03 16:20:00,
2013-01-03 08:24:00,31.5,30.2,30.20,SSE,157,0.0,0.0,95,0.00,,---,0.00,VWS V14.01,2013-01-03 16:24:00,
2013-01-03 08:29:00,32.1,30.8,30.21,SSE,157,0.0,0.0,95,0.01,,---,0.01,VWS V14.01,2013-01-03 16:29:00,
2013-01-03 08:30:00,32.3,31.0,30.20,SSE,157,0.0,0.0,95,0.01,,---,0.01,VWS V14.01,2013-01-03 16:30:00,
2013-01-03 08:34:00,32.6,31.3,30.21,SSE,157,0.0,0.0,95,0.00,,---,0.01,VWS V14.01,2013-01-03 16:34:00,
2013-01-03 08:35:00,32.6,31.3,30.21,SSE,157,0.0,0.0,95,0.01,,---,0.01,VWS V14.01,2013-01-03 16:35:00,
2013-01-03 08:39:00,33.0,31.7,30.21,SSE,157,0.0,0.0,95,0.01,,---,0.01,VWS V14.01,2013-01-03 16:39:00,
2013-01-03 08:40:00,33.1,31.8,30.21,SSE,157,0.0,0.0,95,0.01,,---,0.01,VWS V14.01,2013-01-03 16:40:00,
2013-01-03 08:44:00,33.4,32.1,30.21,SSE,157,0.0,0.0,95,0.01,,---,0.01,VWS V14.01,2013-01-03 16:44:00,
2013-01-03 08:45:00,33.4,32.1,30.21,SSE,157,0.0,0.0,95,0.01,,---,0.01,VWS V14.01,2013-01-03 16:45:00,
2013-01-03 08:49:00,33.9,32.6,30.21,SSE,157,0.0,0.0,95,0.01,,---,0.01,VWS V14.01,2013-01-03 16:49:00,
2013-01-03 08:50:00,33.9,32.6,30.21,SSE,157,0.0,0.0,95,0.01,,---,0.01,VWS V14.01,2013-01-03 16:50:00,
2013-01-03 08:54:00,34.7,33.4,30.21,SSE,157,0.0,0.0,95,0.01,,---,0.01,VWS V14.01,2013-01-03 16:54:00,
2013-01-03 08:55:00,34.7,33.4,30.21,SSE,157,0.0,0.0,95,0.01,,---,0.01,VWS V14.01,2013-01-03 16:55:00,
2013-01-03 09:00:00,35.4,34.1,30.21,SSE,157,0.0,0.0,95,0.01,,---,0.01,VWS V14.01,2013-01-03 17:00:00,
2013-01-03 09:05:00,35.9,34.3,30.22,SSE,157,0.0,1.0,94,0.01,,---,0.01,VWS V14.01,2013-01-03 17:05:00,
2013-01-03 09:06:00,35.9,34.1,30.21,SSE,157,0.0,1.0,93,0.01,,---,0.01,VWS V14.01,2013-01-03 17:06:00,
2013-01-03 09:10:00,35.9,33.8,30.21,SSE,157,0.0,1.0,92,0.01,,---,0.01,VWS V14.01,2013-01-03 17:10:00,
2013-01-03 09:14:00,36.0,33.9,30.22,SSE,157,0.0,0.0,92,0.01,,---,0.01,VWS V14.01,2013-01-03 17:14:00,
2013-01-03 09:15:00,36.0,33.9,30.21,SSE,157,0.0,0.0,92,0.01,,---,0.01,VWS V14.01,2013-01-03 17:15:00,
2013-01-03 09:19:00,36.1,33.7,30.21,SSE,157,0.0,1.0,91,0.01,,---,0.01,VWS V14.01,2013-01-03 17:19:00,
2013-01-03 09:20:00,36.1,33.7,30.21,SSE,157,0.0,2.0,91,0.01,,---,0.01,VWS V14.01,2013-01-03 17:20:00,
2013-01-03 09:24:00,36.1,33.7,30.22,SSE,157,0.0,0.0,91,0.01,,---,0.01,VWS V14.01,2013-01-03 17:24:00,
2013-01-03 09:25:00,36.1,33.7,30.22,SSE,157,0.0,2.0,91,0.01,,---,0.01,VWS V14.01,2013-01-03 17:25:00,
2013-01-03 09:29:00,36.3,33.7,30.22,SSE,158,2.0,2.0,90,0.01,,---,0.01,VWS V14.01,2013-01-03 17:29:00,
2013-01-03 09:30:00,36.4,33.8,30.22,WNW,292,1.0,3.0,90,0.01,,---,0.01,VWS V14.01,2013-01-03 17:30:00,
2013-01-03 09:31:00,36.4,33.5,30.22,WNW,292,0.0,1.0,89,0.00,,---,0.01,VWS V14.01,2013-01-03 17:31:00,
2013-01-03 09:34:00,36.6,33.7,30.22,WNW,292,0.0,1.0,89,0.00,,---,0.01,VWS V14.01,2013-01-03 17:34:00,
2013-01-03 09:35:00,36.6,33.7,30.22,WNW,292,0.0,1.0,89,0.00,,---,0.01,VWS V14.01,2013-01-03 17:35:00,
2013-01-03 09:36:00,36.7,33.8,30.22,WNW,292,0.0,1.0,89,0.00,,---,0.01,VWS V14.01,2013-01-03 17:36:00,
2013-01-03 09:39:00,36.9,33.7,30.22,WNW,292,0.0,1.0,88,0.00,,---,0.01,VWS V14.01,2013-01-03 17:39:00,
2013-01-03 09:40:00,36.9,33.7,30.22,WNW,292,0.0,1.0,88,0.00,,---,0.01,VWS V14.01,2013-01-03 17:40:00,
2013-01-03 09:41:00,37.0,34.1,30.22,WNW,292,0.0,0.0,89,0.00,,---,0.01,VWS V14.01,2013-01-03 17:41:00,
2013-01-03 09:44:00,37.4,34.5,30.23,WNW,292,0.0,0.0,89,0.00,,---,0.01,VWS V14.01,2013-01-03 17:44:00,
2013-01-03 09:45:00,37.5,34.8,30.23,WNW,292,0.0,0.0,90,0.00,,---,0.01,VWS V14.01,2013-01-03 17:45:00,
2013-01-03 09:46:00,37.6,34.9,30.23,WNW,292,0.0,0.0,90,0.00,,---,0.01,VWS V14.01,2013-01-03 17:46:00,
2013-01-03 09:49:00,38.3,35.9,30.23,WNW,292,0.0,0.0,91,0.00,,---,0.01,VWS V14.01,2013-01-03 17:49:00,
2013-01-03 09:50:00,38.4,35.7,30.23,WNW,292,0.0,0.0,90,0.00,,---,0.01,VWS V14.01,2013-01-03 17:50:00,
2013-01-03 09:51:00,38.5,35.5,30.22,WNW,292,0.0,0.0,89,0.00,,---,0.01,VWS V14.01,2013-01-03 17:51:00,
2013-01-03 09:54:00,38.9,35.7,30.22,WNW,292,0.0,0.0,88,0.00,,---,0.01,VWS V14.01,2013-01-03 17:54:00,
2013-01-03 09:55:00,39.0,35.5,30.22,WNW,292,0.0,1.0,87,0.00,,---,0.01,VWS V14.01,2013-01-03 17:55:00,
2013-01-03 09:56:00,39.0,35.5,30.22,WNW,292,0.0,1.0,87,0.00,,---,0.01,VWS V14.01,2013-01-03 17:56:00,
2013-01-03 09:59:00,39.3,35.8,30.22,WNW,292,0.0,1.0,87,0.00,,---,0.01,VWS V14.01,2013-01-03 17:59:00,
2013-01-03 10:00:00,39.4,35.6,30.22,WNW,292,0.0,0.0,86,0.00,,---,0.01,VWS V14.01,2013-01-03 18:00:00,
2013-01-03 10:01:00,39.5,36.0,30.22,WNW,292,0.0,0.0,87,0.00,,---,0.01,VWS V14.01,2013-01-03 18:01:00,
2013-01-03 10:04:00,39.8,36.2,30.23,WNW,292,0.0,0.0,87,0.00,,---,0.01,VWS V14.01,2013-01-03 18:04:00,
2013-01-03 10:05:00,39.9,36.3,30.23,WNW,292,0.0,0.0,87,0.00,,---,0.01,VWS V14.01,2013-01-03 18:05:00,
2013-01-03 10:06:00,39.9,36.3,30.23,WNW,292,0.0,0.0,87,0.00,,---,0.01,VWS V14.01,2013-01-03 18:06:00,
2013-01-03 10:09:00,40.4,36.8,30.22,WNW,292,0.0,0.0,87,0.00,,---,0.01,VWS V14.01,2013-01-03 18:09:00,
2013-01-03 10:10:00,40.5,36.9,30.22,WNW,292,0.0,0.0,87,0.00,,---,0.01,VWS V14.01,2013-01-03 18:10:00,
2013-01-03 10:11:00,40.6,36.8,30.22,WNW,292,0.0,1.0,86,0.00,,---,0.01,VWS V14.01,2013-01-03 18:11:00,
2013-01-03 10:15:00,40.8,36.0,30.22,WNW,292,1.0,2.0,83,0.00,,---,0.01,VWS V14.01,2013-01-03 18:15:00,
2013-01-03 10:16:00,40.8,35.7,30.22,WNW,292,1.0,2.0,82,0.00,,---,0.01,VWS V14.01,2013-01-03 18:16:00,
2013-01-03 10:20:00,41.0,36.2,30.22,WNW,292,0.0,2.0,83,0.00,,---,0.01,VWS V14.01,2013-01-03 18:20:00,
2013-01-03 10:21:00,41.1,36.3,30.22,WNW,292,0.0,0.0,83,0.00,,---,0.01,VWS V14.01,2013-01-03 18:21:00,
2013-01-03 10:25:00,41.6,37.1,30.22,WNW,292,0.0,0.0,84,0.00,,---,0.01,VWS V14.01,2013-01-03 18:25:00,
2013-01-03 10:26:00,41.8,37.3,30.22,WNW,292,0.0,2.0,84,0.00,,---,0.01,VWS V14.01,2013-01-03 18:26:00,
2013-01-03 10:30:00,42.2,37.1,30.22,WNW,292,0.0,2.0,82,0.00,,---,0.01,VWS V14.01,2013-01-03 18:30:00,
2013-01-03 10:31:00,42.4,37.6,30.22,WNW,292,0.0,0.0,83,0.00,,---,0.01,VWS V14.01,2013-01-03 18:31:00,
2013-01-03 10:35:00,43.2,38.4,30.22,WNW,292,0.0,1.0,83,0.00,,---,0.01,VWS V14.01,2013-01-03 18:35:00,
2013-01-03 10:36:00,43.6,39.1,30.22,WNW,292,0.0,1.0,84,0.00,,---,0.01,VWS V14.01,2013-01-03 18:36:00,
2013-01-03 10:40:00,44.5,38.7,30.21,WNW,292,0.0,1.0,80,0.00,,---,0.01,VWS V14.01,2013-01-03 18:40:00,
2013-01-03 10:41:00,44.9,38.5,30.22,WNW,292,1.0,1.0,78,0.00,,---,0.01,VWS V14.01,2013-01-03 18:41:00,
2013-01-03 10:42:00,45.0,38.6,30.22,WNW,292,0.0,1.0,78,0.00,,---,0.01,VWS V14.01,2013-01-03 18:42:00,
2013-01-03 10:45:00,45.7,37.9,30.21,WNW,292,0.0,1.0,74,0.00,,---,0.01,VWS V14.01,2013-01-03 18:45:00,
2013-01-03 10:46:00,45.9,38.4,30.21,WNW,292,0.0,1.0,75,0.00,,---,0.01,VWS V14.01,2013-01-03 18:46:00,
2013-01-03 10:47:00,45.9,38.4,30.21,WNW,292,0.0,1.0,75,0.00,,---,0.01,VWS V14.01,2013-01-03 18:47:00,
2013-01-03 10:50:00,46.6,38.8,30.21,WNW,292,0.0,1.0,74,0.00,,---,0.01,VWS V14.01,2013-01-03 18:50:00,
2013-01-03 10:51:00,46.8,38.6,30.21,WNW,292,0.0,1.0,73,0.00,,---,0.01,VWS V14.01,2013-01-03 18:51:00,
2013-01-03 10:52:00,46.8,38.6,30.21,WNW,292,0.0,1.0,73,0.00,,---,0.01,VWS V14.01,2013-01-03 18:52:00,
2013-01-03 10:56:00,47.3,39.1,30.21,WNW,292,0.0,1.0,73,0.00,,---,0.01,VWS V14.01,2013-01-03 18:56:00,
2013-01-03 10:57:00,47.5,38.9,30.21,WNW,292,0.0,1.0,72,0.00,,---,0.01,VWS V14.01,2013-01-03 18:57:00,
2013-01-03 11:00:00,47.7,39.1,30.21,WNW,292,0.0,1.0,72,0.00,,---,0.01,VWS V14.01,2013-01-03 19:00:00,
2013-01-03 11:01:00,47.8,38.9,30.21,WNW,292,0.0,1.0,71,0.00,,---,0.01,VWS V14.01,2013-01-03 19:01:00,
2013-01-03 11:02:00,47.8,38.9,30.21,WNW,292,0.0,1.0,71,0.00,,---,0.01,VWS V14.01,2013-01-03 19:02:00,
2013-01-03 11:06:00,48.0,39.1,30.22,WNW,292,0.0,1.0,71,0.00,,---,0.01,VWS V14.01,2013-01-03 19:06:00,
2013-01-03 11:07:00,48.1,38.8,30.21,WNW,292,0.0,1.0,70,0.00,,---,0.01,VWS V14.01,2013-01-03 19:07:00,
2013-01-03 11:10:00,48.3,38.6,30.21,WNW,292,0.0,1.0,69,0.00,,---,0.01,VWS V14.01,2013-01-03 19:10:00,
2013-01-03 11:11:00,48.4,38.7,30.20,WNW,292,0.0,1.0,69,0.00,,---,0.01,VWS V14.01,2013-01-03 19:11:00,
2013-01-03 11:12:00,48.5,38.1,30.21,WNW,292,0.0,1.0,67,0.00,,---,0.01,VWS V14.01,2013-01-03 19:12:00,
2013-01-03 11:16:00,48.8,38.7,30.21,WNW,292,0.0,1.0,68,0.00,,---,0.01,VWS V14.01,2013-01-03 19:16:00,
2013-01-03 11:17:00,48.9,38.8,30.20,WNW,292,0.0,1.0,68,0.00,,---,0.01,VWS V14.01,2013-01-03 19:17:00,
2013-01-03 11:20:00,49.3,39.2,30.20,WNW,292,0.0,1.0,68,0.00,,---,0.01,VWS V14.01,2013-01-03 19:20:00,
2013-01-03 11:30:00,51.4,40.0,30.20,WNW,292,0.0,1.0,65,0.00,,---,0.01,VWS V14.01,2013-01-03 19:30:00,
2013-01-03 11:40:00,53.0,40.3,30.20,WNW,292,0.0,0.0,62,0.00,,---,0.01,VWS V14.01,2013-01-03 19:40:00,
2013-01-03 11:50:00,54.8,39.9,30.20,WNW,292,0.0,1.0,57,0.00,,---,0.01,VWS V14.01,2013-01-03 19:50:00,
2013-01-03 11:52:00,55.1,38.8,30.19,West,269,0.0,2.0,54,0.00,,---,0.01,VWS V14.01,2013-01-03 19:52:00,
2013-01-03 11:53:00,55.3,39.0,30.19,West,267,0.0,2.0,54,0.00,,---,0.01,VWS V14.01,2013-01-03 19:53:00,
2013-01-03 11:56:00,55.7,37.9,30.19,West,267,0.0,2.0,51,0.00,,---,0.01,VWS V14.01,2013-01-03 19:56:00,
2013-01-03 11:57:00,55.9,38.0,30.19,West,267,0.0,2.0,51,0.00,,---,0.01,VWS V14.01,2013-01-03 19:57:00,
2013-01-03 11:58:00,56.0,38.2,30.19,West,267,0.0,2.0,51,0.00,,---,0.01,VWS V14.01,2013-01-03 19:58:00,
2013-01-03 11:59:00,56.2,38.8,30.19,West,267,0.0,2.0,52,0.00,,---,0.01,VWS V14.01,2013-01-03 19:59:00,
2013-01-03 12:00:00,56.3,39.4,30.19,West,267,0.0,2.0,53,0.00,,---,0.01,VWS V14.01,2013-01-03 20:00:00,
2013-01-03 12:01:00,56.5,39.6,30.19,West,267,1.0,1.0,53,0.00,,---,0.01,VWS V14.01,2013-01-03 20:01:00,
2013-01-03 12:02:00,56.8,39.4,30.19,West,267,0.0,1.0,52,0.00,,---,0.01,VWS V14.01,2013-01-03 20:02:00,
2013-01-03 12:03:00,56.9,39.5,30.19,West,267,0.0,1.0,52,0.00,,---,0.01,VWS V14.01,2013-01-03 20:03:00,
2013-01-03 12:04:00,57.2,39.8,30.19,West,267,0.0,1.0,52,0.00,,---,0.01,VWS V14.01,2013-01-03 20:04:00,
2013-01-03 12:06:00,57.6,40.1,30.19,West,267,0.0,1.0,52,0.00,,---,0.01,VWS V14.01,2013-01-03 20:06:00,
2013-01-03 12:08:00,58.0,40.5,30.19,West,267,0.0,2.0,52,0.00,,---,0.01,VWS V14.01,2013-01-03 20:08:00,
2013-01-03 12:09:00,58.5,41.0,30.19,West,267,0.0,2.0,52,0.00,,---,0.01,VWS V14.01,2013-01-03 20:09:00,
2013-01-03 12:10:00,58.6,41.0,30.19,West,267,0.0,2.0,52,0.00,,---,0.01,VWS V14.01,2013-01-03 20:10:00,
2013-01-03 12:11:00,59.0,40.9,30.19,West,267,0.0,0.0,51,0.00,,---,0.01,VWS V14.01,2013-01-03 20:11:00,
2013-01-03 12:13:00,59.2,41.1,30.19,West,267,0.0,1.0,51,0.00,,---,0.01,VWS V14.01,2013-01-03 20:13:00,
2013-01-03 12:14:00,59.5,41.4,30.19,West,267,1.0,1.0,51,0.00,,---,0.01,VWS V14.01,2013-01-03 20:14:00,
2013-01-03 12:15:00,59.6,41.0,30.19,West,267,0.0,1.0,50,0.00,,---,0.01,VWS V14.01,2013-01-03 20:15:00,
2013-01-03 12:16:00,59.8,40.6,30.19,West,265,0.0,1.0,49,0.00,,---,0.01,VWS V14.01,2013-01-03 20:16:00,
2013-01-03 12:18:00,60.0,40.8,30.19,WSW,240,0.0,3.0,49,0.00,,---,0.01,VWS V14.01,2013-01-03 20:18:00,
2013-01-03 12:19:00,60.0,40.3,30.19,WSW,238,0.0,3.0,48,0.00,,---,0.01,VWS V14.01,2013-01-03 20:19:00,
2013-01-03 12:20:00,60.1,40.9,30.19,WSW,238,0.0,3.0,49,0.00,,---,0.01,VWS V14.01,2013-01-03 20:20:00,
2013-01-03 12:21:00,60.3,40.5,30.19,ESE,123,0.0,3.0,48,0.00,,---,0.01,VWS V14.01,2013-01-03 20:21:00,
2013-01-03 12:23:00,60.3,41.1,30.19,SE,126,0.0,3.0,49,0.00,,---,0.01,VWS V14.01,2013-01-03 20:23:00,
2013-01-03 12:24:00,60.3,40.5,30.19,SSE,163,5.0,5.0,48,0.00,,---,0.01,VWS V14.01,2013-01-03 20:24:00,
2013-01-03 12:25:00,60.4,40.6,30.19,SSE,167,1.0,5.0,48,0.00,,---,0.01,VWS V14.01,2013-01-03 20:25:00,
2013-01-03 12:26:00,60.3,40.5,30.19,SE,136,1.0,5.0,48,0.00,,---,0.01,VWS V14.01,2013-01-03 20:26:00,
2013-01-03 12:28:00,60.2,40.5,30.19,SE,132,0.0,5.0,48,0.00,,---,0.01,VWS V14.01,2013-01-03 20:28:00,
2013-01-03 12:29:00,60.2,40.5,30.18,SE,146,0.0,5.0,48,0.00,,---,0.01,VWS V14.01,2013-01-03 20:29:00,
2013-01-03 12:30:00,60.2,40.5,30.18,SE,126,3.0,5.0,48,0.00,,---,0.01,VWS V14.01,2013-01-03 20:30:00,
2013-01-03 12:31:00,60.1,41.4,30.18,ESE,123,0.0,2.0,50,0.00,,---,0.01,VWS V14.01,2013-01-03 20:31:00,
2013-01-03 12:33:00,60.1,41.4,30.18,SE,132,0.0,2.0,50,0.00,,---,0.01,VWS V14.01,2013-01-03 20:33:00,
2013-01-03 12:34:00,60.1,40.9,30.18,SE,130,1.0,3.0,49,0.00,,---,0.01,VWS V14.01,2013-01-03 20:34:00,
2013-01-03 12:35:00,60.1,40.4,30.19,SE,130,2.0,3.0,48,0.00,,---,0.01,VWS V14.01,2013-01-03 20:35:00,
2013-01-03 12:36:00,60.0,40.3,30.19,ESE,123,3.0,3.0,48,0.00,,---,0.01,VWS V14.01,2013-01-03 20:36:00,
2013-01-03 12:38:00,59.8,39.0,30.19,SSE,147,0.0,4.0,46,0.00,,---,0.01,VWS V14.01,2013-01-03 20:38:00,
2013-01-03 12:39:00,59.7,38.3,30.18,SSE,157,0.0,4.0,45,0.00,,---,0.01,VWS V14.01,2013-01-03 20:39:00,
2013-01-03 12:40:00,59.7,38.3,30.19,SE,127,3.0,4.0,45,0.00,,---,0.01,VWS V14.01,2013-01-03 20:40:00,
2013-01-03 12:42:00,59.5,39.3,30.18,ESE,120,4.0,5.0,47,0.00,,---,0.01,VWS V14.01,2013-01-03 20:42:00,
2013-01-03 12:43:00,59.4,40.2,30.19,ESE,118,0.0,5.0,49,0.00,,---,0.01,VWS V14.01,2013-01-03 20:43:00,
2013-01-03 12:44:00,59.4,41.3,30.19,SE,134,1.0,5.0,51,0.00,,---,0.01,VWS V14.01,2013-01-03 20:44:00,
2013-01-03 12:45:00,59.4,41.3,30.19,SSE,155,2.0,5.0,51,0.00,,---,0.01,VWS V14.01,2013-01-03 20:45:00,
2013-01-03 12:47:00,59.3,42.2,30.18,SE,126,0.0,5.0,53,0.00,,---,0.01,VWS V14.01,2013-01-03 20:47:00,
2013-01-03 12:48:00,59.3,42.2,30.19,SE,132,2.0,5.0,53,0.00,,---,0.01,VWS V14.01,2013-01-03 20:48:00,
2013-01-03 12:49:00,59.3,42.2,30.19,SE,134,0.0,5.0,53,0.00,,---,0.01,VWS V14.01,2013-01-03 20:49:00,
2013-01-03 12:50:00,59.2,42.1,30.18,SE,134,1.0,5.0,53,0.00,,---,0.01,VWS V14.01,2013-01-03 20:50:00,
2013-01-03 12:52:00,59.2,42.6,30.19,SE,128,3.0,3.0,54,0.00,,---,0.01,VWS V14.01,2013-01-03 20:52:00,
2013-01-03 12:53:00,59.2,42.6,30.19,SE,128,3.0,4.0,54,0.00,,---,0.01,VWS V14.01,2013-01-03 20:53:00,
2013-01-03 12:54:00,59.1,42.0,30.18,ESE,123,3.0,4.0,53,0.00,,---,0.01,VWS V14.01,2013-01-03 20:54:00,
2013-01-03 12:55:00,59.1,42.5,30.18,ESE,123,3.0,4.0,54,0.00,,---,0.01,VWS V14.01,2013-01-03 20:55:00,
2013-01-03 12:57:00,59.0,42.9,30.18,South,169,4.0,4.0,55,0.00,,---,0.01,VWS V14.01,2013-01-03 20:57:00,
2013-01-03 12:58:00,58.9,42.8,30.18,SE,138,0.0,4.0,55,0.00,,---,0.01,VWS V14.01,2013-01-03 20:58:00,
2013-01-03 12:59:00,58.9,42.8,30.18,SE,138,2.0,4.0,55,0.00,,---,0.01,VWS V14.01,2013-01-03 20:59:00,
2013-01-03 13:00:00,58.9,43.2,30.18,SE,133,1.0,1.0,56,0.00,,---,0.01,VWS V14.01,2013-01-03 21:00:00,
2013-01-03 13:02:00,58.9,43.2,30.18,SE,141,3.0,4.0,56,0.00,,---,0.01,VWS V14.01,2013-01-03 21:02:00,
2013-01-03 13:03:00,58.9,43.2,30.18,SSE,159,1.0,4.0,56,0.00,,---,0.01,VWS V14.01,2013-01-03 21:03:00,
2013-01-03 13:05:00,58.9,43.2,30.18,SSE,158,1.0,1.0,56,0.00,,---,0.01,VWS V14.01,2013-01-03 21:05:00,
2013-01-03 13:07:00,58.9,43.2,30.18,SSE,158,1.0,1.0,56,0.00,,---,0.01,VWS V14.01,2013-01-03 21:07:00,
2013-01-03 13:09:00,58.9,43.2,30.18,SSE,158,1.0,1.0,56,0.00,,---,0.01,VWS V14.01,2013-01-03 21:09:00,
2013-01-03 13:10:00,59.1,43.9,30.18,SSE,154,2.0,2.0,57,0.00,,---,0.01,VWS V14.01,2013-01-03 21:10:00,
2013-01-03 13:11:00,59.2,44.0,30.18,SSE,154,1.0,2.0,57,0.00,,---,0.01,VWS V14.01,2013-01-03 21:11:00,
2013-01-03 13:12:00,59.3,43.6,30.18,SE,139,1.0,3.0,56,0.00,,---,0.01,VWS V14.01,2013-01-03 21:12:00,
2013-01-03 13:17:00,59.4,44.2,29.65,SE,142,0.0,0.0,57,0.00,,---,0.01,VWS V14.01,2013-01-03 21:17:00,
2013-01-03 13:20:00,59.6,43.4,29.65,SE,146,2.0,3.0,55,0.00,,---,0.01,VWS V14.01,2013-01-03 21:20:00,
2013-01-03 13:22:00,59.6,43.0,29.65,ESE,112,0.0,6.0,54,0.00,,---,0.01,VWS V14.01,2013-01-03 21:22:00,
2013-01-03 13:23:00,59.5,43.3,29.65,ESE,112,0.0,6.0,55,0.00,,---,0.01,VWS V14.01,2013-01-03 21:23:00,
2013-01-03 13:27:00,59.3,42.7,29.65,SSE,163,0.0,6.0,54,0.00,,---,0.01,VWS V14.01,2013-01-03 21:27:00,
2013-01-03 13:28:00,59.3,42.7,29.65,SSE,161,0.0,6.0,54,0.00,,---,0.01,VWS V14.01,2013-01-03 21:28:00,
2013-01-03 13:30:00,59.3,42.7,29.65,South,169,0.0,6.0,54,0.00,,---,0.01,VWS V14.01,2013-01-03 21:30:00,
2013-01-03 13:32:00,59.3,43.2,29.65,SE,140,1.0,2.0,55,0.00,,---,0.01,VWS V14.01,2013-01-03 21:32:00,
2013-01-03 13:33:00,59.4,42.8,29.65,ESE,116,3.0,6.0,54,0.00,,---,0.01,VWS V14.01,2013-01-03 21:33:00,
2013-01-03 13:37:00,59.3,42.7,29.65,ESE,121,1.0,6.0,54,0.00,,---,0.01,VWS V14.01,2013-01-03 21:37:00,
2013-01-03 13:38:00,59.3,43.2,29.65,ESE,121,0.0,6.0,55,0.00,,---,0.01,VWS V14.01,2013-01-03 21:38:00,
2013-01-03 13:40:00,59.4,42.8,29.65,ESE,121,1.0,6.0,54,0.00,,---,0.01,VWS V14.01,2013-01-03 21:40:00,
2013-01-03 13:43:00,59.6,43.4,29.65,SE,146,3.0,3.0,55,0.00,,---,0.01,VWS V14.01,2013-01-03 21:43:00,
2013-01-03 13:44:00,59.7,43.5,29.65,SSE,148,0.0,3.0,55,0.00,,---,0.01,VWS V14.01,2013-01-03 21:44:00,
2013-01-03 13:48:00,60.0,42.8,29.65,ESE,123,4.0,4.0,53,0.00,,---,0.01,VWS V14.01,2013-01-03 21:48:00,
2013-01-03 13:49:00,59.9,42.7,29.65,ESE,123,0.0,4.0,53,0.00,,---,0.01,VWS V14.01,2013-01-03 21:49:00,
2013-01-03 13:50:00,59.9,43.2,29.65,ESE,123,0.0,4.0,54,0.00,,---,0.01,VWS V14.01,2013-01-03 21:50:00,
2013-01-03 13:53:00,59.9,42.2,29.65,ESE,121,1.0,4.0,52,0.00,,---,0.01,VWS V14.01,2013-01-03 21:53:00,
2013-01-03 13:54:00,59.8,42.2,29.65,ESE,119,4.0,4.0,52,0.00,,---,0.01,VWS V14.01,2013-01-03 21:54:00,
2013-01-03 13:58:00,59.7,43.0,29.65,ESE,120,0.0,5.0,54,0.00,,---,0.01,VWS V14.01,2013-01-03 21:58:00,
2013-01-03 13:59:00,59.8,43.1,29.65,ESE,120,0.0,5.0,54,0.00,,---,0.01,VWS V14.01,2013-01-03 21:59:00,
2013-01-03 14:00:00,59.9,43.2,29.65,ESE,120,0.0,5.0,54,0.00,,---,0.01,VWS V14.01,2013-01-03 22:00:00,
2013-01-03 14:03:00,60.2,43.0,29.65,ESE,121,0.0,3.0,53,0.00,,---,0.01,VWS V14.01,2013-01-03 22:03:00,
2013-01-03 14:04:00,60.3,43.6,29.65,SSE,153,2.0,3.0,54,0.00,,---,0.01,VWS V14.01,2013-01-03 22:04:00,
2013-01-03 14:08:00,60.5,42.8,29.65,SE,128,0.0,3.0,52,0.00,,---,0.01,VWS V14.01,2013-01-03 22:08:00,
2013-01-03 14:09:00,60.5,43.3,29.65,SE,128,0.0,3.0,53,0.00,,---,0.01,VWS V14.01,2013-01-03 22:09:00,
2013-01-03 14:10:00,60.5,43.3,29.65,SE,128,1.0,3.0,53,0.00,,---,0.01,VWS V14.01,2013-01-03 22:10:00,
2013-01-03 14:13:00,60.7,43.5,29.65,South,171,2.0,4.0,53,0.00,,---,0.01,VWS V14.01,2013-01-03 22:13:00,
2013-01-03 14:14:00,60.8,43.1,29.65,SSW,196,1.0,4.0,52,0.00,,---,0.01,VWS V14.01,2013-01-03 22:14:00,
2013-01-03 14:18:00,61.1,42.8,29.66,SSE,153,0.0,4.0,51,0.00,,---,0.01,VWS V14.01,2013-01-03 22:18:00,
2013-01-03 14:19:00,61.1,42.8,29.66,SSW,205,0.0,4.0,51,0.00,,---,0.01,VWS V14.01,2013-01-03 22:19:00,
2013-01-03 14:20:00,61.1,43.4,29.66,SSW,205,0.0,4.0,52,0.00,,---,0.01,VWS V14.01,2013-01-03 22:20:00,
2013-01-03 14:23:00,61.1,42.8,29.66,SE,140,0.0,3.0,51,0.00,,---,0.01,VWS V14.01,2013-01-03 22:23:00,
2013-01-03 14:24:00,61.1,42.8,29.66,SE,140,0.0,3.0,51,0.00,,---,0.01,VWS V14.01,2013-01-03 22:24:00,
2013-01-03 14:25:00,61.1,42.8,29.66,South,169,0.0,4.0,51,0.00,,---,0.01,VWS V14.01,2013-01-03 22:25:00,
2013-01-03 14:30:00,61.1,42.8,29.66,SE,135,1.0,5.0,51,0.00,,---,0.01,VWS V14.01,2013-01-03 22:30:00,
2013-01-03 14:40:00,60.5,43.3,29.66,SE,135,1.0,4.0,53,0.00,,---,0.01,VWS V14.01,2013-01-03 22:40:00,
2013-01-03 14:50:00,57.8,40.3,29.66,ESE,112,1.0,5.0,52,0.00,,CLR,0.01,VWS V14.01,2013-01-03 22:50:00,
2013-01-03 14:56:00,60.5,43.3,29.66,SE,135,1.0,4.0,53,0.00,,---,0.01,VWS V14.01,2013-01-03 22:56:00,
2013-01-03 14:57:00,59.3,40.7,29.66,SE,126,1.0,1.0,50,0.00,,---,0.01,VWS V14.01,2013-01-03 22:57:00,
2013-01-03 15:00:00,59.0,40.9,29.66,ESE,117,0.0,5.0,51,0.00,,CLR,0.01,VWS V14.01,2013-01-03 23:00:00,
2013-01-03 15:01:00,58.9,40.8,29.66,SE,128,3.0,5.0,51,0.00,,CLR,0.01,VWS V14.01,2013-01-03 23:01:00,
2013-01-03 15:02:00,58.9,40.8,29.66,SE,126,2.0,5.0,51,0.00,,CLR,0.01,VWS V14.01,2013-01-03 23:02:00,
2013-01-03 15:06:00,58.6,40.5,29.66,SSE,148,1.0,6.0,51,0.00,,CLR,0.01,VWS V14.01,2013-01-03 23:06:00,
2013-01-03 15:07:00,58.6,41.0,29.66,ESE,114,6.0,6.0,52,0.00,,CLR,0.01,VWS V14.01,2013-01-03 23:07:00,
2013-01-03 15:10:00,58.4,40.9,29.66,SE,141,3.0,6.0,52,0.00,,CLR,0.01,VWS V14.01,2013-01-03 23:10:00,
2013-01-03 15:11:00,58.3,40.8,29.66,ESE,114,2.0,6.0,52,0.00,,CLR,0.01,VWS V14.01,2013-01-03 23:11:00,
2013-01-03 15:12:00,58.3,40.8,29.66,ESE,114,1.0,6.0,52,0.00,,CLR,0.01,VWS V14.01,2013-01-03 23:12:00,
2013-01-03 15:16:00,58.3,41.3,29.66,SE,130,2.0,6.0,53,0.00,,CLR,0.01,VWS V14.01,2013-01-03 23:16:00,
2013-01-03 15:17:00,58.3,40.8,29.66,SE,127,3.0,6.0,52,0.00,,CLR,0.01,VWS V14.01,2013-01-03 23:17:00,
2013-01-03 15:20:00,58.3,41.3,29.66,ESE,117,5.0,6.0,53,0.00,,CLR,0.01,VWS V14.01,2013-01-03 23:20:00,
2013-01-03 15:22:00,58.2,41.2,29.66,SE,138,2.0,5.0,53,0.00,,CLR,0.01,VWS V14.01,2013-01-03 23:22:00,
2013-01-03 15:27:00,58.0,40.5,29.66,ESE,119,0.0,5.0,52,0.00,,CLR,0.01,VWS V14.01,2013-01-03 23:27:00,
2013-01-03 15:30:00,58.1,41.1,29.66,ESE,123,3.0,5.0,53,0.00,,CLR,0.01,VWS V14.01,2013-01-03 23:30:00,
2013-01-03 15:32:00,58.1,41.1,29.66,SE,128,0.0,3.0,53,0.00,,CLR,0.01,VWS V14.01,2013-01-03 23:32:00,
2013-01-03 15:37:00,58.1,41.1,29.66,SE,138,0.0,4.0,53,0.00,,CLR,0.01,VWS V14.01,2013-01-03 23:37:00,
2013-01-03 15:40:00,58.1,40.1,29.67,South,169,1.0,4.0,51,0.00,,CLR,0.01,VWS V14.01,2013-01-03 23:40:00,
2013-01-03 15:42:00,58.0,40.0,29.67,SSE,166,0.0,4.0,51,0.00,,CLR,0.01,VWS V14.01,2013-01-03 23:42:00,
2013-01-03 15:47:00,58.0,40.0,29.66,ESE,113,3.0,4.0,51,0.00,,CLR,0.01,VWS V14.01,2013-01-03 23:47:00,
2013-01-03 15:50:00,57.8,40.3,29.66,ESE,112,1.0,5.0,52,0.00,,CLR,0.01,VWS V14.01,2013-01-03 23:50:00,
2013-01-03 16:00:00,57.0,40.1,29.67,SE,135,1.0,4.0,53,0.00,,CLR,0.01,VWS V14.01,2013-01-04 00:00:00,
2013-01-03 16:10:00,56.4,40.0,29.67,SE,135,0.0,3.0,54,0.00,,CLR,0.01,VWS V14.01,2013-01-04 00:10:00,
2013-01-03 16:20:00,55.9,40.5,29.67,SE,135,0.0,2.0,56,0.00,,CLR,0.01,VWS V14.01,2013-01-04 00:20:00,
2013-01-03 16:30:00,55.5,41.0,29.67,SE,135,0.0,2.0,58,0.00,,CLR,0.01,VWS V14.01,2013-01-04 00:30:00,
2013-01-03 16:40:00,54.9,40.4,29.68,SE,135,0.0,1.0,58,0.00,,CLR,0.01,VWS V14.01,2013-01-04 00:40:00,
2013-01-03 16:50:00,47.2,39.3,29.69,SE,144,0.0,0.0,74,0.00,,CLR,0.01,VWS V14.01,2013-01-04 00:50:00,
2013-01-03 16:51:00,54.9,40.4,29.68,SE,135,0.0,1.0,58,0.00,,CLR,0.01,VWS V14.01,2013-01-04 00:51:00,
2013-01-03 16:56:00,53.4,41.5,29.68,SE,144,0.0,0.0,64,0.00,,CLR,0.01,VWS V14.01,2013-01-04 00:56:00,
2013-01-03 17:00:00,52.9,41.5,29.67,SE,144,0.0,0.0,65,0.00,,CLR,0.01,VWS V14.01,2013-01-04 01:00:00,
2013-01-03 17:01:00,52.6,41.6,29.68,SE,144,0.0,0.0,66,0.00,,CLR,0.01,VWS V14.01,2013-01-04 01:01:00,
2013-01-03 17:06:00,51.8,41.2,29.68,SE,144,0.0,0.0,67,0.00,,CLR,0.01,VWS V14.01,2013-01-04 01:06:00,
2013-01-03 17:07:00,51.8,41.2,29.68,SE,144,0.0,0.0,67,0.00,,CLR,0.01,VWS V14.01,2013-01-04 01:07:00,
2013-01-03 17:10:00,51.4,41.2,29.68,SE,144,0.0,0.0,68,0.00,,CLR,0.01,VWS V14.01,2013-01-04 01:10:00,
2013-01-03 17:11:00,51.3,41.1,29.68,SE,144,0.0,0.0,68,0.00,,CLR,0.01,VWS V14.01,2013-01-04 01:11:00,
2013-01-03 17:12:00,51.3,41.1,29.68,SE,144,0.0,0.0,68,0.00,,CLR,0.01,VWS V14.01,2013-01-04 01:12:00,
2013-01-03 17:16:00,50.8,41.4,29.69,SE,144,0.0,0.0,70,0.00,,CLR,0.01,VWS V14.01,2013-01-04 01:16:00,
2013-01-03 17:17:00,50.8,41.4,29.69,SE,144,0.0,0.0,70,0.00,,CLR,0.01,VWS V14.01,2013-01-04 01:17:00,
2013-01-03 17:20:00,50.4,41.4,29.69,SE,144,0.0,1.0,71,0.00,,CLR,0.01,VWS V14.01,2013-01-04 01:20:00,
2013-01-03 17:22:00,50.1,41.1,29.69,SE,144,0.0,1.0,71,0.00,,CLR,0.01,VWS V14.01,2013-01-04 01:22:00,
2013-01-03 17:27:00,49.4,40.8,29.69,SE,144,0.0,1.0,72,0.00,,CLR,0.01,VWS V14.01,2013-01-04 01:27:00,
2013-01-03 17:30:00,49.0,40.4,29.69,SE,144,0.0,1.0,72,0.00,,CLR,0.01,VWS V14.01,2013-01-04 01:30:00,
2013-01-03 17:32:00,48.8,40.2,29.69,SE,144,0.0,0.0,72,0.00,,CLR,0.01,VWS V14.01,2013-01-04 01:32:00,
2013-01-03 17:37:00,48.4,40.5,29.69,SE,144,0.0,0.0,74,0.00,,CLR,0.01,VWS V14.01,2013-01-04 01:37:00,
2013-01-03 17:40:00,48.1,40.6,29.69,SE,144,0.0,0.0,75,0.00,,CLR,0.01,VWS V14.01,2013-01-04 01:40:00,
2013-01-03 17:42:00,47.8,39.9,29.69,SE,144,0.0,0.0,74,0.00,,CLR,0.01,VWS V14.01,2013-01-04 01:42:00,
2013-01-03 17:47:00,47.4,39.2,29.69,SE,144,0.0,0.0,73,0.00,,CLR,0.01,VWS V14.01,2013-01-04 01:47:00,
2013-01-03 17:48:00,47.3,39.1,29.69,SE,144,0.0,0.0,73,0.00,,CLR,0.01,VWS V14.01,2013-01-04 01:48:00,
2013-01-03 17:50:00,47.2,39.3,29.69,SE,144,0.0,0.0,74,0.00,,CLR,0.01,VWS V14.01,2013-01-04 01:50:00,
2013-01-03 17:52:00,47.1,39.2,29.69,SE,144,0.0,0.0,74,0.00,,CLR,0.01,VWS V14.01,2013-01-04 01:52:00,
2013-01-03 17:53:00,47.1,39.6,29.69,SE,144,0.0,0.0,75,0.00,,CLR,0.01,VWS V14.01,2013-01-04 01:53:00,
2013-01-03 17:57:00,46.9,39.1,29.69,SE,144,0.0,0.0,74,0.00,,CLR,0.01,VWS V14.01,2013-01-04 01:57:00,
2013-01-03 17:58:00,46.9,39.1,29.69,SE,144,0.0,0.0,74,0.00,,CLR,0.01,VWS V14.01,2013-01-04 01:58:00,
2013-01-03 18:00:00,46.8,39.0,29.69,SE,144,0.0,0.0,74,0.00,,CLR,0.01,VWS V14.01,2013-01-04 02:00:00,
2013-01-03 18:02:00,46.7,38.9,29.70,SE,144,0.0,0.0,74,0.00,,CLR,0.01,VWS V14.01,2013-01-04 02:02:00,
2013-01-03 18:03:00,46.7,38.9,29.70,SE,144,0.0,0.0,74,0.00,,CLR,0.01,VWS V14.01,2013-01-04 02:03:00,
2013-01-03 18:07:00,46.4,38.9,29.70,SE,144,0.0,0.0,75,0.00,,CLR,0.01,VWS V14.01,2013-01-04 02:07:00,
2013-01-03 18:08:00,46.4,38.9,29.70,SE,144,0.0,0.0,75,0.00,,CLR,0.01,VWS V14.01,2013-01-04 02:08:00,
2013-01-03 18:10:00,46.3,39.2,29.70,SE,144,0.0,0.0,76,0.00,,CLR,0.01,VWS V14.01,2013-01-04 02:10:00,
2013-01-03 18:12:00,46.1,39.0,29.70,SE,144,0.0,0.0,76,0.00,,CLR,0.01,VWS V14.01,2013-01-04 02:12:00,
2013-01-03 18:13:00,46.1,39.0,29.70,SE,144,0.0,0.0,76,0.00,,CLR,0.01,VWS V14.01,2013-01-04 02:13:00,
2013-01-03 18:17:00,45.8,39.3,29.70,SE,144,0.0,0.0,78,0.00,,CLR,0.01,VWS V14.01,2013-01-04 02:17:00,
2013-01-03 18:18:00,45.7,39.2,29.70,SE,144,0.0,0.0,78,0.00,,CLR,0.01,VWS V14.01,2013-01-04 02:18:00,
2013-01-03 18:20:00,45.6,39.2,29.70,SE,144,0.0,0.0,78,0.00,,CLR,0.01,VWS V14.01,2013-01-04 02:20:00,
2013-01-03 18:23:00,45.4,39.3,29.70,SE,144,0.0,0.0,79,0.00,,CLR,0.01,VWS V14.01,2013-01-04 02:23:00,
2013-01-03 18:28:00,45.2,39.4,29.71,SE,144,0.0,0.0,80,0.00,,CLR,0.01,VWS V14.01,2013-01-04 02:28:00,
2013-01-03 18:30:00,45.1,39.3,29.70,SE,144,0.0,0.0,80,0.00,,CLR,0.01,VWS V14.01,2013-01-04 02:30:00,
2013-01-03 18:33:00,45.0,39.5,29.70,SE,144,0.0,0.0,81,0.00,,CLR,0.01,VWS V14.01,2013-01-04 02:33:00,
2013-01-03 18:34:00,45.0,39.5,29.70,SE,144,0.0,0.0,81,0.00,,CLR,0.01,VWS V14.01,2013-01-04 02:34:00,
2013-01-03 18:38:00,44.9,39.4,29.71,SE,144,0.0,0.0,81,0.00,,CLR,0.01,VWS V14.01,2013-01-04 02:38:00,
2013-01-03 18:39:00,44.8,39.3,29.71,SE,144,0.0,0.0,81,0.00,,CLR,0.01,VWS V14.01,2013-01-04 02:39:00,
2013-01-03 18:40:00,44.8,39.7,29.70,SE,144,0.0,0.0,82,0.00,,CLR,0.01,VWS V14.01,2013-01-04 02:40:00,
2013-01-03 18:43:00,44.7,39.5,29.70,SE,144,0.0,0.0,82,0.00,,CLR,0.01,VWS V14.01,2013-01-04 02:43:00,
2013-01-03 18:44:00,44.7,39.5,29.70,SE,144,0.0,0.0,82,0.00,,CLR,0.01,VWS V14.01,2013-01-04 02:44:00,
2013-01-03 18:48:00,44.5,39.0,29.70,SE,144,0.0,0.0,81,0.00,,CLR,0.01,VWS V14.01,2013-01-04 02:48:00,
2013-01-03 18:49:00,44.5,39.0,29.70,SE,144,0.0,0.0,81,0.00,,CLR,0.01,VWS V14.01,2013-01-04 02:49:00,
2013-01-03 18:50:00,44.4,38.9,29.70,SE,144,0.0,0.0,81,0.00,,CLR,0.01,VWS V14.01,2013-01-04 02:50:00,
2013-01-03 18:53:00,44.2,39.1,29.70,SE,144,0.0,0.0,82,0.00,,CLR,0.01,VWS V14.01,2013-01-04 02:53:00,
2013-01-03 18:54:00,44.2,39.1,29.70,SE,144,0.0,0.0,82,0.00,,CLR,0.01,VWS V14.01,2013-01-04 02:54:00,
2013-01-03 18:58:00,44.0,39.2,29.70,SE,144,0.0,0.0,83,0.00,,CLR,0.01,VWS V14.01,2013-01-04 02:58:00,
2013-01-03 18:59:00,44.0,39.2,29.70,SE,144,0.0,0.0,83,0.00,,CLR,0.01,VWS V14.01,2013-01-04 02:59:00,
2013-01-03 19:00:00,44.0,39.2,29.70,SE,144,0.0,0.0,83,0.00,,CLR,0.01,VWS V14.01,2013-01-04 03:00:00,
2013-01-03 19:03:00,43.9,39.1,29.70,SE,144,0.0,0.0,83,0.00,,CLR,0.01,VWS V14.01,2013-01-04 03:03:00,
2013-01-03 19:04:00,43.9,39.1,29.70,SE,144,0.0,0.0,83,0.00,,CLR,0.01,VWS V14.01,2013-01-04 03:04:00,
2013-01-03 19:08:00,43.7,39.2,29.70,SE,144,0.0,0.0,84,0.00,,CLR,0.01,VWS V14.01,2013-01-04 03:08:00,
2013-01-03 19:09:00,43.7,39.2,29.70,SE,144,0.0,0.0,84,0.00,,CLR,0.01,VWS V14.01,2013-01-04 03:09:00,
2013-01-03 19:10:00,43.6,39.1,29.70,SE,144,0.0,0.0,84,0.00,,CLR,0.01,VWS V14.01,2013-01-04 03:10:00,
2013-01-03 19:14:00,43.3,39.1,29.70,SE,144,0.0,0.0,85,0.00,,CLR,0.01,VWS V14.01,2013-01-04 03:14:00,
2013-01-03 19:19:00,43.1,38.9,29.71,SE,144,0.0,0.0,85,0.00,,CLR,0.01,VWS V14.01,2013-01-04 03:19:00,
2013-01-03 19:20:00,43.0,38.8,29.70,SE,144,0.0,0.0,85,0.00,,CLR,0.01,VWS V14.01,2013-01-04 03:20:00,
2013-01-03 19:24:00,42.8,38.6,29.70,SE,144,0.0,0.0,85,0.00,,CLR,0.01,VWS V14.01,2013-01-04 03:24:00,
2013-01-03 19:29:00,42.5,38.6,29.71,SE,144,0.0,0.0,86,0.00,,CLR,0.01,VWS V14.01,2013-01-04 03:29:00,
2013-01-03 19:30:00,42.5,38.6,29.71,SE,144,0.0,0.0,86,0.00,,CLR,0.01,VWS V14.01,2013-01-04 03:30:00,
2013-01-03 19:34:00,42.3,38.4,29.71,SE,144,0.0,0.0,86,0.00,,CLR,0.01,VWS V14.01,2013-01-04 03:34:00,
2013-01-03 19:39:00,42.2,38.6,29.71,SE,144,0.0,0.0,87,0.00,,CLR,0.01,VWS V14.01,2013-01-04 03:39:00,
2013-01-03 19:40:00,42.1,38.5,29.71,SE,144,0.0,0.0,87,0.00,,CLR,0.01,VWS V14.01,2013-01-04 03:40:00,
2013-01-03 19:44:00,42.0,38.4,29.71,SE,144,0.0,0.0,87,0.00,,CLR,0.01,VWS V14.01,2013-01-04 03:44:00,
2013-01-03 19:49:00,41.8,38.2,29.71,SE,144,0.0,0.0,87,0.00,,CLR,0.01,VWS V14.01,2013-01-04 03:49:00,
2013-01-03 19:50:00,41.8,38.2,29.71,SE,144,0.0,0.0,87,0.00,,CLR,0.01,VWS V14.01,2013-01-04 03:50:00,
2013-01-03 19:54:00,41.6,38.0,29.71,SE,144,0.0,0.0,87,0.00,,CLR,0.01,VWS V14.01,2013-01-04 03:54:00,
2013-01-03 19:55:00,41.6,38.0,29.71,SE,144,0.0,0.0,87,0.00,,CLR,0.01,VWS V14.01,2013-01-04 03:55:00,
2013-01-03 19:59:00,41.4,37.8,29.71,SE,144,0.0,0.0,87,0.00,,CLR,0.01,VWS V14.01,2013-01-04 03:59:00,
2013-01-03 20:00:00,41.4,37.8,29.71,SE,144,0.0,0.0,87,0.00,,CLR,0.01,VWS V14.01,2013-01-04 04:00:00,
2013-01-03 20:04:00,41.1,37.8,29.71,SE,144,0.0,0.0,88,0.00,,CLR,0.01,VWS V14.01,2013-01-04 04:04:00,
2013-01-03 20:05:00,41.1,37.8,29.71,SE,144,0.0,0.0,88,0.00,,CLR,0.01,VWS V14.01,2013-01-04 04:05:00,
2013-01-03 20:09:00,40.9,37.6,29.71,SE,144,0.0,0.0,88,0.00,,CLR,0.01,VWS V14.01,2013-01-04 04:09:00,
2013-01-03 20:10:00,40.9,37.6,29.71,SE,144,0.0,0.0,88,0.00,,CLR,0.01,VWS V14.01,2013-01-04 04:10:00,
2013-01-03 20:14:00,40.7,37.7,29.71,SE,144,0.0,1.0,89,0.00,,CLR,0.01,VWS V14.01,2013-01-04 04:14:00,
2013-01-03 20:15:00,40.7,37.7,29.71,SE,144,0.0,1.0,89,0.00,,CLR,0.01,VWS V14.01,2013-01-04 04:15:00,
2013-01-03 20:19:00,40.7,37.7,29.72,SE,144,0.0,1.0,89,0.00,,CLR,0.01,VWS V14.01,2013-01-04 04:19:00,
2013-01-03 20:20:00,40.6,37.6,29.72,SE,144,0.0,1.0,89,0.00,,CLR,0.01,VWS V14.01,2013-01-04 04:20:00,
2013-01-03 20:24:00,40.5,37.5,29.72,SE,144,0.0,0.0,89,0.00,,CLR,0.01,VWS V14.01,2013-01-04 04:24:00,
2013-01-03 20:25:00,40.5,37.5,29.72,SE,144,0.0,0.0,89,0.00,,CLR,0.01,VWS V14.01,2013-01-04 04:25:00,
2013-01-03 20:26:00,40.5,37.5,29.71,SE,144,0.0,0.0,89,0.00,,CLR,0.01,VWS V14.01,2013-01-04 04:26:00,
2013-01-03 20:30:00,40.4,37.4,29.72,SE,144,0.0,0.0,89,0.00,,CLR,0.01,VWS V14.01,2013-01-04 04:30:00,
2013-01-03 20:31:00,40.4,37.4,29.72,SE,144,0.0,0.0,89,0.00,,CLR,0.01,VWS V14.01,2013-01-04 04:31:00,
2013-01-03 20:35:00,40.2,37.2,29.72,SE,144,0.0,0.0,89,0.00,,CLR,0.01,VWS V14.01,2013-01-04 04:35:00,
2013-01-03 20:36:00,40.2,37.2,29.72,SE,144,0.0,0.0,89,0.00,,CLR,0.01,VWS V14.01,2013-01-04 04:36:00,
2013-01-03 20:40:00,40.1,37.1,29.72,SE,144,0.0,0.0,89,0.00,,CLR,0.01,VWS V14.01,2013-01-04 04:40:00,
2013-01-03 20:41:00,40.1,37.1,29.72,SE,144,0.0,0.0,89,0.00,,CLR,0.01,VWS V14.01,2013-01-04 04:41:00,
2013-01-03 20:45:00,39.9,36.9,29.71,SE,144,0.0,0.0,89,0.00,,CLR,0.01,VWS V14.01,2013-01-04 04:45:00,
2013-01-03 20:46:00,39.9,36.9,29.71,SE,144,0.0,0.0,89,0.00,,CLR,0.01,VWS V14.01,2013-01-04 04:46:00,
2013-01-03 20:50:00,39.7,36.7,29.71,SE,144,0.0,0.0,89,0.00,,CLR,0.01,VWS V14.01,2013-01-04 04:50:00,
2013-01-03 20:51:00,39.7,37.0,29.71,SE,144,0.0,0.0,90,0.00,,CLR,0.01,VWS V14.01,2013-01-04 04:51:00,
2013-01-03 20:55:00,39.6,36.9,29.71,SE,144,0.0,0.0,90,0.00,,CLR,0.01,VWS V14.01,2013-01-04 04:55:00,
2013-01-03 20:56:00,39.6,36.9,29.71,SE,144,0.0,0.0,90,0.00,,CLR,0.01,VWS V14.01,2013-01-04 04:56:00,
2013-01-03 21:00:00,39.5,36.8,29.71,SE,144,0.0,0.0,90,0.00,,CLR,0.01,VWS V14.01,2013-01-04 05:00:00,
2013-01-03 21:02:00,39.4,36.7,29.72,SE,144,0.0,0.0,90,0.00,,CLR,0.01,VWS V14.01,2013-01-04 05:02:00,
2013-01-03 21:05:00,39.3,36.6,29.72,SE,144,0.0,0.0,90,0.00,,CLR,0.01,VWS V14.01,2013-01-04 05:05:00,
2013-01-03 21:07:00,39.2,36.5,29.72,SE,144,0.0,0.0,90,0.00,,CLR,0.01,VWS V14.01,2013-01-04 05:07:00,
2013-01-03 21:10:00,39.2,36.5,29.72,SE,144,0.0,0.0,90,0.00,,CLR,0.01,VWS V14.01,2013-01-04 05:10:00,
2013-01-03 21:11:00,39.2,36.5,29.72,SE,144,0.0,0.0,90,0.00,,CLR,0.01,VWS V14.01,2013-01-04 05:11:00,
2013-01-03 21:12:00,39.1,36.4,29.72,SE,144,0.0,0.0,90,0.00,,CLR,0.01,VWS V14.01,2013-01-04 05:12:00,
2013-01-03 21:15:00,39.0,36.3,29.72,SE,144,0.0,0.0,90,0.00,,CLR,0.01,VWS V14.01,2013-01-04 05:15:00,
2013-01-03 21:16:00,39.0,36.3,29.72,SE,144,0.0,0.0,90,0.00,,CLR,0.01,VWS V14.01,2013-01-04 05:16:00,
2013-01-03 21:17:00,38.9,36.2,29.72,SE,144,0.0,1.0,90,0.00,,CLR,0.01,VWS V14.01,2013-01-04 05:17:00,
2013-01-03 21:20:00,38.9,36.5,29.72,SE,144,0.0,1.0,91,0.00,,CLR,0.01,VWS V14.01,2013-01-04 05:20:00,
2013-01-03 21:21:00,38.9,36.5,29.72,SE,144,0.0,0.0,91,0.00,,CLR,0.01,VWS V14.01,2013-01-04 05:21:00,
2013-01-03 21:22:00,39.0,36.6,29.72,SSE,148,0.0,2.0,91,0.00,,CLR,0.01,VWS V14.01,2013-01-04 05:22:00,
2013-01-03 21:26:00,39.1,36.7,29.72,SSE,148,0.0,2.0,91,0.00,,CLR,0.01,VWS V14.01,2013-01-04 05:26:00,
2013-01-03 21:27:00,39.1,36.7,29.72,SSE,148,0.0,2.0,91,0.00,,CLR,0.01,VWS V14.01,2013-01-04 05:27:00,
2013-01-03 21:30:00,39.1,36.4,29.72,SSE,148,0.0,2.0,90,0.00,,CLR,0.01,VWS V14.01,2013-01-04 05:30:00,
2013-01-03 21:31:00,39.1,36.4,29.72,SSE,148,0.0,0.0,90,0.00,,CLR,0.01,VWS V14.01,2013-01-04 05:31:00,
2013-01-03 21:32:00,39.0,36.3,29.72,SSE,148,0.0,0.0,90,0.00,,CLR,0.01,VWS V14.01,2013-01-04 05:32:00,
2013-01-03 21:36:00,38.9,36.2,29.72,SSE,148,0.0,0.0,90,0.00,,CLR,0.01,VWS V14.01,2013-01-04 05:36:00,
2013-01-03 21:37:00,38.9,36.2,29.72,SSE,148,0.0,0.0,90,0.00,,CLR,0.01,VWS V14.01,2013-01-04 05:37:00,
2013-01-03 21:38:00,38.9,36.2,29.72,SSE,148,0.0,0.0,90,0.00,,CLR,0.01,VWS V14.01,2013-01-04 05:38:00,
2013-01-03 21:40:00,38.8,36.1,29.73,SSE,148,0.0,0.0,90,0.00,,CLR,0.01,VWS V14.01,2013-01-04 05:40:00,
2013-01-03 21:41:00,38.8,36.1,29.72,SSE,148,0.0,0.0,90,0.00,,CLR,0.01,VWS V14.01,2013-01-04 05:41:00,
2013-01-03 21:42:00,38.8,36.4,29.72,SSE,148,0.0,0.0,91,0.00,,CLR,0.01,VWS V14.01,2013-01-04 05:42:00,
2013-01-03 21:43:00,38.7,36.3,29.72,SSE,148,0.0,0.0,91,0.00,,CLR,0.01,VWS V14.01,2013-01-04 05:43:00,
2013-01-03 21:46:00,38.6,36.2,29.72,SSE,148,0.0,0.0,91,0.00,,CLR,0.01,VWS V14.01,2013-01-04 05:46:00,
2013-01-03 21:47:00,38.6,36.2,29.73,SSE,148,0.0,0.0,91,0.00,,CLR,0.01,VWS V14.01,2013-01-04 05:47:00,
2013-01-03 21:48:00,38.6,36.2,29.73,SSE,148,0.0,0.0,91,0.00,,CLR,0.01,VWS V14.01,2013-01-04 05:48:00,
2013-01-03 21:50:00,38.5,36.1,29.72,SSE,148,0.0,0.0,91,0.00,,CLR,0.01,VWS V14.01,2013-01-04 05:50:00,
2013-01-03 21:51:00,38.5,36.1,29.73,SSE,148,0.0,1.0,91,0.00,,CLR,0.01,VWS V14.01,2013-01-04 05:51:00,
2013-01-03 21:52:00,38.5,36.1,29.72,SSE,148,0.0,1.0,91,0.00,,CLR,0.01,VWS V14.01,2013-01-04 05:52:00,
2013-01-03 21:53:00,38.5,36.1,29.72,SSE,148,0.0,1.0,91,0.00,,CLR,0.01,VWS V14.01,2013-01-04 05:53:00,
2013-01-03 21:56:00,38.5,36.1,29.72,SSE,148,0.0,1.0,91,0.00,,CLR,0.01,VWS V14.01,2013-01-04 05:56:00,
2013-01-03 21:57:00,38.5,36.1,29.72,SSE,148,0.0,1.0,91,0.00,,CLR,0.01,VWS V14.01,2013-01-04 05:57:00,
2013-01-03 21:58:00,38.5,36.1,29.72,SSE,148,0.0,1.0,91,0.00,,CLR,0.01,VWS V14.01,2013-01-04 05:58:00,
2013-01-03 22:00:00,38.4,36.0,29.72,SSE,148,0.0,1.0,91,0.00,,CLR,0.01,VWS V14.01,2013-01-04 06:00:00,
2013-01-03 22:01:00,38.4,36.0,29.72,SSE,148,0.0,0.0,91,0.00,,CLR,0.01,VWS V14.01,2013-01-04 06:01:00,
2013-01-03 22:02:00,38.4,36.0,29.72,SSE,148,0.0,0.0,91,0.00,,CLR,0.01,VWS V14.01,2013-01-04 06:02:00,
2013-01-03 22:03:00,38.4,36.0,29.72,SSE,148,0.0,0.0,91,0.00,,CLR,0.01,VWS V14.01,2013-01-04 06:03:00,
2013-01-03 22:06:00,38.4,36.0,29.72,SSE,148,0.0,0.0,91,0.00,,CLR,0.01,VWS V14.01,2013-01-04 06:06:00,
2013-01-03 22:07:00,38.4,36.0,29.72,SSE,148,0.0,0.0,91,0.00,,CLR,0.01,VWS V14.01,2013-01-04 06:07:00,
2013-01-03 22:08:00,38.4,36.0,29.72,SSE,148,0.0,0.0,91,0.00,,CLR,0.01,VWS V14.01,2013-01-04 06:08:00,
2013-01-03 22:10:00,38.3,35.9,29.73,SSE,148,0.0,0.0,91,0.00,,CLR,0.01,VWS V14.01,2013-01-04 06:10:00,
2013-01-03 22:11:00,38.3,35.9,29.72,SSE,148,0.0,0.0,91,0.00,,CLR,0.01,VWS V14.01,2013-01-04 06:11:00,
2013-01-03 22:12:00,38.3,35.9,29.72,SSE,148,0.0,0.0,91,0.00,,CLR,0.01,VWS V14.01,2013-01-04 06:12:00,
2013-01-03 22:13:00,38.3,35.9,29.73,SSE,148,0.0,0.0,91,0.00,,CLR,0.01,VWS V14.01,2013-01-04 06:13:00,
2013-01-03 22:16:00,38.2,35.8,29.73,SSE,148,0.0,0.0,91,0.00,,CLR,0.01,VWS V14.01,2013-01-04 06:16:00,
2013-01-03 22:17:00,38.2,35.8,29.73,SSE,148,0.0,0.0,91,0.00,,CLR,0.01,VWS V14.01,2013-01-04 06:17:00,
2013-01-03 22:18:00,38.1,35.7,29.73,SSE,148,0.0,0.0,91,0.00,,CLR,0.01,VWS V14.01,2013-01-04 06:18:00,
2013-01-03 22:20:00,38.0,35.6,29.73,SSE,148,0.0,0.0,91,0.00,,CLR,0.01,VWS V14.01,2013-01-04 06:20:00,
2013-01-03 22:21:00,38.0,35.6,29.73,SSE,148,0.0,0.0,91,0.00,,CLR,0.01,VWS V14.01,2013-01-04 06:21:00,
2013-01-03 22:22:00,37.9,35.5,29.73,SSE,148,0.0,0.0,91,0.00,,CLR,0.01,VWS V14.01,2013-01-04 06:22:00,
2013-01-03 22:23:00,37.9,35.5,29.73,SSE,148,0.0,0.0,91,0.00,,CLR,0.01,VWS V14.01,2013-01-04 06:23:00,
2013-01-03 22:26:00,37.8,35.4,29.73,SSE,148,0.0,0.0,91,0.00,,CLR,0.01,VWS V14.01,2013-01-04 06:26:00,
2013-01-03 22:27:00,37.8,35.4,29.73,SSE,148,0.0,0.0,91,0.00,,CLR,0.01,VWS V14.01,2013-01-04 06:27:00,
2013-01-03 22:28:00,37.8,35.4,29.73,SSE,148,0.0,0.0,91,0.00,,CLR,0.01,VWS V14.01,2013-01-04 06:28:00,
2013-01-03 22:30:00,37.7,35.3,29.73,SSE,148,0.0,0.0,91,0.00,,CLR,0.01,VWS V14.01,2013-01-04 06:30:00,
2013-01-03 22:31:00,37.7,35.3,29.73,SSE,148,0.0,0.0,91,0.00,,CLR,0.01,VWS V14.01,2013-01-04 06:31:00,
2013-01-03 22:33:00,37.7,35.3,29.73,SSE,148,0.0,0.0,91,0.00,,CLR,0.01,VWS V14.01,2013-01-04 06:33:00,
2013-01-03 22:36:00,37.6,35.5,29.73,SSE,148,0.0,0.0,92,0.00,,CLR,0.01,VWS V14.01,2013-01-04 06:36:00,
2013-01-03 22:38:00,37.5,35.4,29.73,SSE,148,0.0,0.0,92,0.00,,CLR,0.01,VWS V14.01,2013-01-04 06:38:00,
2013-01-03 22:39:00,37.5,35.4,29.73,SSE,148,0.0,0.0,92,0.00,,CLR,0.01,VWS V14.01,2013-01-04 06:39:00,
2013-01-03 22:40:00,37.5,35.4,29.73,SSE,148,0.0,0.0,92,0.00,,CLR,0.01,VWS V14.01,2013-01-04 06:40:00,
2013-01-03 22:41:00,37.4,35.3,29.73,SSE,148,0.0,0.0,92,0.00,,CLR,0.01,VWS V14.01,2013-01-04 06:41:00,
2013-01-03 22:43:00,37.4,35.3,29.73,SSE,148,0.0,0.0,92,0.00,,CLR,0.01,VWS V14.01,2013-01-04 06:43:00,
2013-01-03 22:44:00,37.4,35.3,29.73,SSE,148,0.0,0.0,92,0.00,,CLR,0.01,VWS V14.01,2013-01-04 06:44:00,
2013-01-03 22:46:00,37.4,35.3,29.73,SSE,148,0.0,0.0,92,0.00,,CLR,0.01,VWS V14.01,2013-01-04 06:46:00,
2013-01-03 22:48:00,37.3,35.2,29.73,SSE,148,0.0,0.0,92,0.00,,CLR,0.01,VWS V14.01,2013-01-04 06:48:00,
2013-01-03 22:49:00,37.3,35.2,29.73,SSE,148,0.0,0.0,92,0.00,,CLR,0.01,VWS V14.01,2013-01-04 06:49:00,
2013-01-03 22:50:00,37.2,35.1,29.73,SSE,148,0.0,0.0,92,0.00,,CLR,0.01,VWS V14.01,2013-01-04 06:50:00,
2013-01-03 22:51:00,37.2,35.1,29.73,SSE,148,0.0,0.0,92,0.00,,CLR,0.01,VWS V14.01,2013-01-04 06:51:00,
2013-01-03 22:53:00,37.2,35.1,29.73,SSE,148,0.0,0.0,92,0.00,,CLR,0.01,VWS V14.01,2013-01-04 06:53:00,
2013-01-03 22:54:00,37.2,35.1,29.73,SSE,148,0.0,0.0,92,0.00,,CLR,0.01,VWS V14.01,2013-01-04 06:54:00,
2013-01-03 22:56:00,37.1,35.0,29.73,SSE,148,0.0,0.0,92,0.00,,CLR,0.01,VWS V14.01,2013-01-04 06:56:00,
2013-01-03 22:58:00,37.1,35.0,29.73,SSE,148,0.0,0.0,92,0.00,,CLR,0.01,VWS V14.01,2013-01-04 06:58:00,
2013-01-03 23:00:00,37.1,35.0,29.73,SSE,148,0.0,0.0,92,0.00,,CLR,0.01,VWS V14.01,2013-01-04 07:00:00,
2013-01-03 23:01:00,37.0,34.9,29.73,SSE,148,0.0,0.0,92,0.00,,CLR,0.01,VWS V14.01,2013-01-04 07:01:00,
2013-01-03 23:03:00,37.0,34.9,29.73,SSE,148,0.0,0.0,92,0.00,,CLR,0.01,VWS V14.01,2013-01-04 07:03:00,
2013-01-03 23:05:00,37.0,34.9,29.73,SSE,148,0.0,0.0,92,0.00,,CLR,0.01,VWS V14.01,2013-01-04 07:05:00,
2013-01-03 23:06:00,37.0,34.9,29.73,SSE,148,0.0,0.0,92,0.00,,CLR,0.01,VWS V14.01,2013-01-04 07:06:00,
2013-01-03 23:08:00,36.9,34.8,29.73,SSE,148,0.0,0.0,92,0.00,,CLR,0.01,VWS V14.01,2013-01-04 07:08:00,
2013-01-03 23:09:00,36.9,34.8,29.73,SSE,148,0.0,0.0,92,0.00,,CLR,0.01,VWS V14.01,2013-01-04 07:09:00,
2013-01-03 23:10:00,36.9,34.8,29.73,SSE,148,0.0,0.0,92,0.00,,CLR,0.01,VWS V14.01,2013-01-04 07:10:00,
2013-01-03 23:12:00,36.9,34.8,29.73,SSE,148,0.0,0.0,92,0.00,,CLR,0.01,VWS V14.01,2013-01-04 07:12:00,
2013-01-03 23:13:00,36.8,34.7,29.73,SSE,148,0.0,0.0,92,0.00,,CLR,0.01,VWS V14.01,2013-01-04 07:13:00,
2013-01-03 23:14:00,36.8,34.7,29.73,SSE,148,0.0,0.0,92,0.00,,CLR,0.01,VWS V14.01,2013-01-04 07:14:00,
2013-01-03 23:15:00,36.8,34.7,29.73,SSE,148,0.0,0.0,92,0.00,,CLR,0.01,VWS V14.01,2013-01-04 07:15:00,
2013-01-03 23:17:00,36.8,34.7,29.73,SSE,148,0.0,0.0,92,0.00,,CLR,0.01,VWS V14.01,2013-01-04 07:17:00,
2013-01-03 23:18:00,36.8,34.7,29.73,SSE,148,0.0,0.0,92,0.00,,CLR,0.01,VWS V14.01,2013-01-04 07:18:00,
2013-01-03 23:19:00,36.7,34.6,29.73,SSE,148,0.0,0.0,92,0.00,,CLR,0.01,VWS V14.01,2013-01-04 07:19:00,
2013-01-03 23:20:00,36.7,34.6,29.73,SSE,148,0.0,0.0,92,0.00,,CLR,0.01,VWS V14.01,2013-01-04 07:20:00,
2013-01-03 23:22:00,36.7,34.6,29.72,SSE,148,0.0,0.0,92,0.00,,CLR,0.01,VWS V14.01,2013-01-04 07:22:00,
2013-01-03 23:24:00,36.6,34.5,29.73,SSE,148,0.0,0.0,92,0.00,,CLR,0.01,VWS V14.01,2013-01-04 07:24:00,
2013-01-03 23:25:00,36.6,34.5,29.73,SSE,148,0.0,0.0,92,0.00,,CLR,0.01,VWS V14.01,2013-01-04 07:25:00,
2013-01-03 23:27:00,36.5,34.4,29.73,SSE,148,0.0,0.0,92,0.00,,CLR,0.01,VWS V14.01,2013-01-04 07:27:00,
2013-01-03 23:29:00,36.5,34.4,29.73,SSE,148,0.0,0.0,92,0.00,,CLR,0.01,VWS V14.01,2013-01-04 07:29:00,
2013-01-03 23:30:00,36.4,34.3,29.73,SSE,148,0.0,0.0,92,0.00,,CLR,0.01,VWS V14.01,2013-01-04 07:30:00,
2013-01-03 23:32:00,36.4,34.3,29.73,SSE,148,0.0,0.0,92,0.00,,CLR,0.01,VWS V14.01,2013-01-04 07:32:00,
2013-01-03 23:34:00,36.4,34.3,29.72,SSE,148,0.0,0.0,92,0.00,,CLR,0.01,VWS V14.01,2013-01-04 07:34:00,
2013-01-03 23:35:00,36.3,34.2,29.72,SSE,148,0.0,0.0,92,0.00,,CLR,0.01,VWS V14.01,2013-01-04 07:35:00,
2013-01-03 23:37:00,36.2,34.1,29.72,SSE,148,0.0,0.0,92,0.00,,CLR,0.01,VWS V14.01,2013-01-04 07:37:00,
2013-01-03 23:39:00,36.2,34.1,29.72,SSE,148,0.0,0.0,92,0.00,,CLR,0.01,VWS V14.01,2013-01-04 07:39:00,
2013-01-03 23:40:00,36.2,34.4,29.72,SSE,148,0.0,0.0,93,0.00,,CLR,0.01,VWS V14.01,2013-01-04 07:40:00,
2013-01-03 23:42:00,36.1,34.3,29.72,SSE,148,0.0,0.0,93,0.00,,CLR,0.01,VWS V14.01,2013-01-04 07:42:00,
2013-01-03 23:44:00,36.1,34.3,29.72,SSE,148,0.0,0.0,93,0.00,,CLR,0.01,VWS V14.01,2013-01-04 07:44:00,
2013-01-03 23:45:00,36.1,34.3,29.72,SSE,148,0.0,0.0,93,0.00,,CLR,0.01,VWS V14.01,2013-01-04 07:45:00,
2013-01-03 23:48:00,36.1,34.3,29.72,SSE,148,0.0,0.0,93,0.00,,CLR,0.01,VWS V14.01,2013-01-04 07:48:00,
2013-01-03 23:50:00,36.1,34.3,29.72,SSE,148,0.0,0.0,93,0.00,,CLR,0.01,VWS V14.01,2013-01-04 07:50:00,
2013-01-03 23:53:00,36.0,34.2,29.72,SSE,148,0.0,0.0,93,0.00,,CLR,0.01,VWS V14.01,2013-01-04 07:53:00,
2013-01-03 23:55:00,36.0,34.2,29.72,SSE,148,0.0,0.0,93,0.00,,CLR,0.01,VWS V14.01,2013-01-04 07:55:00,
2013-01-03 23:56:00,36.0,34.2,29.72,SSE,148,0.0,0.0,93,0.00,,CLR,0.01,VWS V14.01,2013-01-04 07:56:00,
2013-01-03 23:58:00,36.0,34.2,29.72,SSE,148,0.0,0.0,93,0.00,,CLR,0.01,VWS V14.01,2013-01-04 07:58:00,